sensor_id;sensor_type;location;lat;lon;timestamp;temperature;humidity
5344;DHT22;2694;48.950;8.970;2022-09-04T00:01:56;16.20;99.90
5344;DHT22;2694;48.950;8.970;2022-09-04T00:04:36;16.30;99.90
5344;DHT22;2694;48.950;8.970;2022-09-04T00:07:15;16.20;99.90
5344;DHT22;2694;48.950;8.970;2022-09-04T00:09:53;16.20;99.90
5344;DHT22;2694;48.950;8.970;2022-09-04T00:12:28;16.20;99.90
5344;DHT22;2694;48.950;8.970;2022-09-04T00:15:01;16.10;99.90
5344;DHT22;2694;48.950;8.970;2022-09-04T00:17:36;16.10;99.90
5344;DHT22;2694;48.950;8.970;2022-09-04T00:20:08;16.10;99.90
5344;DHT22;2694;48.950;8.970;2022-09-04T00:22:46;16.20;99.90
5344;DHT22;2694;48.950;8.970;2022-09-04T00:25:21;16.30;99.90
5344;DHT22;2694;48.950;8.970;2022-09-04T00:27:56;16.30;99.90
5344;DHT22;2694;48.950;8.970;2022-09-04T00:30:25;16.30;99.90
5344;DHT22;2694;48.950;8.970;2022-09-04T00:32:59;16.30;99.90
5344;DHT22;2694;48.950;8.970;2022-09-04T00:35:36;16.30;99.90
5344;DHT22;2694;48.950;8.970;2022-09-04T00:38:08;16.40;99.90
5344;DHT22;2694;48.950;8.970;2022-09-04T00:40:38;16.20;99.90
5344;DHT22;2694;48.950;8.970;2022-09-04T00:46:20;16.30;99.90
5344;DHT22;2694;48.950;8.970;2022-09-04T00:51:53;16.10;99.90
5344;DHT22;2694;48.950;8.970;2022-09-04T00:54:46;15.90;99.90
5344;DHT22;2694;48.950;8.970;2022-09-04T00:57:35;15.90;99.90
5344;DHT22;2694;48.950;8.970;2022-09-04T01:00:08;16.00;99.90
5344;DHT22;2694;48.950;8.970;2022-09-04T01:02:50;16.00;99.90
5344;DHT22;2694;48.950;8.970;2022-09-04T01:05:32;15.90;99.90
5344;DHT22;2694;48.950;8.970;2022-09-04T01:08:13;15.80;99.90
5344;DHT22;2694;48.950;8.970;2022-09-04T01:10:48;15.70;99.90
5344;DHT22;2694;48.950;8.970;2022-09-04T01:13:22;15.70;99.90
5344;DHT22;2694;48.950;8.970;2022-09-04T01:15:55;15.70;99.90
5344;DHT22;2694;48.950;8.970;2022-09-04T01:18:28;15.80;99.90
5344;DHT22;2694;48.950;8.970;2022-09-04T01:21:13;15.70;99.90
5344;DHT22;2694;48.950;8.970;2022-09-04T01:23:57;15.80;99.90
5344;DHT22;2694;48.950;8.970;2022-09-04T01:26:35;15.80;99.90
5344;DHT22;2694;48.950;8.970;2022-09-04T01:31:45;15.80;99.90
5344;DHT22;2694;48.950;8.970;2022-09-04T01:34:25;15.80;99.90
5344;DHT22;2694;48.950;8.970;2022-09-04T01:36:59;15.80;99.90
5344;DHT22;2694;48.950;8.970;2022-09-04T01:39:31;15.90;99.90
5344;DHT22;2694;48.950;8.970;2022-09-04T01:42:05;15.90;99.90
5344;DHT22;2694;48.950;8.970;2022-09-04T01:44:34;15.90;99.90
5344;DHT22;2694;48.950;8.970;2022-09-04T01:47:09;15.90;99.90
5344;DHT22;2694;48.950;8.970;2022-09-04T01:49:38;15.90;99.90
5344;DHT22;2694;48.950;8.970;2022-09-04T01:52:21;15.70;99.90
5344;DHT22;2694;48.950;8.970;2022-09-04T01:54:52;15.50;99.90
5344;DHT22;2694;48.950;8.970;2022-09-04T01:57:40;15.30;99.90
5344;DHT22;2694;48.950;8.970;2022-09-04T02:00:11;15.30;99.90
5344;DHT22;2694;48.950;8.970;2022-09-04T02:02:51;15.20;99.90
5344;DHT22;2694;48.950;8.970;2022-09-04T02:05:28;15.20;99.90
5344;DHT22;2694;48.950;8.970;2022-09-04T02:10:36;15.30;99.90
5344;DHT22;2694;48.950;8.970;2022-09-04T02:13:13;15.30;99.90
5344;DHT22;2694;48.950;8.970;2022-09-04T02:15:48;15.20;99.90
5344;DHT22;2694;48.950;8.970;2022-09-04T02:18:24;15.10;99.90
5344;DHT22;2694;48.950;8.970;2022-09-04T02:21:01;15.00;99.90
5344;DHT22;2694;48.950;8.970;2022-09-04T02:23:35;15.10;99.90
5344;DHT22;2694;48.950;8.970;2022-09-04T02:26:11;15.10;99.90
5344;DHT22;2694;48.950;8.970;2022-09-04T02:28:47;15.00;99.90
5344;DHT22;2694;48.950;8.970;2022-09-04T02:31:22;15.20;99.90
5344;DHT22;2694;48.950;8.970;2022-09-04T02:33:56;15.30;99.90
5344;DHT22;2694;48.950;8.970;2022-09-04T02:36:31;15.30;99.90
5344;DHT22;2694;48.950;8.970;2022-09-04T02:39:11;15.30;99.90
5344;DHT22;2694;48.950;8.970;2022-09-04T02:41:47;15.20;99.90
5344;DHT22;2694;48.950;8.970;2022-09-04T02:44:28;15.20;99.90
5344;DHT22;2694;48.950;8.970;2022-09-04T02:47:03;15.10;99.90
5344;DHT22;2694;48.950;8.970;2022-09-04T02:49:38;15.10;99.90
5344;DHT22;2694;48.950;8.970;2022-09-04T02:52:21;15.10;99.90
5344;DHT22;2694;48.950;8.970;2022-09-04T02:55:10;15.20;99.90
5344;DHT22;2694;48.950;8.970;2022-09-04T02:57:45;15.20;99.90
5344;DHT22;2694;48.950;8.970;2022-09-04T03:02:49;15.30;99.90
5344;DHT22;2694;48.950;8.970;2022-09-04T03:05:20;15.10;99.90
5344;DHT22;2694;48.950;8.970;2022-09-04T03:07:55;15.00;99.90
5344;DHT22;2694;48.950;8.970;2022-09-04T03:10:28;15.00;99.90
5344;DHT22;2694;48.950;8.970;2022-09-04T03:13:02;15.00;99.90
5344;DHT22;2694;48.950;8.970;2022-09-04T03:15:38;14.90;99.90
5344;DHT22;2694;48.950;8.970;2022-09-04T03:18:13;14.90;99.90
5344;DHT22;2694;48.950;8.970;2022-09-04T03:20:45;15.00;99.90
5344;DHT22;2694;48.950;8.970;2022-09-04T03:23:19;14.90;99.90
5344;DHT22;2694;48.950;8.970;2022-09-04T03:29:02;14.80;99.90
5344;DHT22;2694;48.950;8.970;2022-09-04T03:31:42;14.80;99.90
5344;DHT22;2694;48.950;8.970;2022-09-04T03:34:17;14.90;99.90
5344;DHT22;2694;48.950;8.970;2022-09-04T03:36:54;15.00;99.90
5344;DHT22;2694;48.950;8.970;2022-09-04T03:42:00;15.10;99.90
5344;DHT22;2694;48.950;8.970;2022-09-04T03:44:41;15.10;99.90
5344;DHT22;2694;48.950;8.970;2022-09-04T03:47:18;15.00;99.90
5344;DHT22;2694;48.950;8.970;2022-09-04T03:49:56;15.20;99.90
5344;DHT22;2694;48.950;8.970;2022-09-04T03:52:33;15.20;99.90
5344;DHT22;2694;48.950;8.970;2022-09-04T03:55:13;15.10;99.90
5344;DHT22;2694;48.950;8.970;2022-09-04T04:00:21;14.80;99.90
5344;DHT22;2694;48.950;8.970;2022-09-04T04:03:13;14.70;99.90
5344;DHT22;2694;48.950;8.970;2022-09-04T04:05:55;14.70;99.90
5344;DHT22;2694;48.950;8.970;2022-09-04T04:08:52;14.70;99.90
5344;DHT22;2694;48.950;8.970;2022-09-04T04:11:37;14.80;99.90
5344;DHT22;2694;48.950;8.970;2022-09-04T04:17:43;14.80;99.90
5344;DHT22;2694;48.950;8.970;2022-09-04T04:20:22;14.70;99.90
5344;DHT22;2694;48.950;8.970;2022-09-04T04:23:05;14.70;99.90
5344;DHT22;2694;48.950;8.970;2022-09-04T04:25:49;14.60;99.90
5344;DHT22;2694;48.950;8.970;2022-09-04T04:28:33;14.60;99.90
5344;DHT22;2694;48.950;8.970;2022-09-04T04:31:09;14.70;99.90
5344;DHT22;2694;48.950;8.970;2022-09-04T04:33:49;14.70;99.90
5344;DHT22;2694;48.950;8.970;2022-09-04T04:36:26;14.70;99.90
5344;DHT22;2694;48.950;8.970;2022-09-04T04:41:40;14.70;99.90
5344;DHT22;2694;48.950;8.970;2022-09-04T04:44:33;14.80;99.90
5344;DHT22;2694;48.950;8.970;2022-09-04T04:47:23;14.70;99.90
5344;DHT22;2694;48.950;8.970;2022-09-04T04:50:07;14.70;99.90
5344;DHT22;2694;48.950;8.970;2022-09-04T04:55:19;14.50;99.90
5344;DHT22;2694;48.950;8.970;2022-09-04T04:57:59;14.40;99.90
5344;DHT22;2694;48.950;8.970;2022-09-04T05:00:32;14.30;99.90
5344;DHT22;2694;48.950;8.970;2022-09-04T05:03:06;14.20;99.90
5344;DHT22;2694;48.950;8.970;2022-09-04T05:05:47;14.20;99.90
5344;DHT22;2694;48.950;8.970;2022-09-04T05:08:25;14.20;99.90
5344;DHT22;2694;48.950;8.970;2022-09-04T05:10:59;14.10;99.90
5344;DHT22;2694;48.950;8.970;2022-09-04T05:13:34;14.00;99.90
5344;DHT22;2694;48.950;8.970;2022-09-04T05:16:08;14.10;99.90
5344;DHT22;2694;48.950;8.970;2022-09-04T05:18:43;14.20;99.90
5344;DHT22;2694;48.950;8.970;2022-09-04T05:23:50;14.30;99.90
5344;DHT22;2694;48.950;8.970;2022-09-04T05:28:54;14.30;99.90
5344;DHT22;2694;48.950;8.970;2022-09-04T05:31:33;14.30;99.90
5344;DHT22;2694;48.950;8.970;2022-09-04T05:34:08;14.40;99.90
5344;DHT22;2694;48.950;8.970;2022-09-04T05:36:45;14.50;99.90
5344;DHT22;2694;48.950;8.970;2022-09-04T05:39:26;14.60;99.90
5344;DHT22;2694;48.950;8.970;2022-09-04T05:42:01;14.70;99.90
5344;DHT22;2694;48.950;8.970;2022-09-04T05:44:44;14.70;99.90
5344;DHT22;2694;48.950;8.970;2022-09-04T05:47:23;14.90;99.90
5344;DHT22;2694;48.950;8.970;2022-09-04T05:50:15;15.00;99.90
5344;DHT22;2694;48.950;8.970;2022-09-04T05:52:56;15.00;99.90
5344;DHT22;2694;48.950;8.970;2022-09-04T05:55:41;15.10;99.90
5344;DHT22;2694;48.950;8.970;2022-09-04T05:58:31;15.30;99.90
5344;DHT22;2694;48.950;8.970;2022-09-04T06:01:07;15.60;99.90
5344;DHT22;2694;48.950;8.970;2022-09-04T06:06:52;16.10;99.90
5344;DHT22;2694;48.950;8.970;2022-09-04T06:09:37;16.20;99.90
5344;DHT22;2694;48.950;8.970;2022-09-04T06:12:18;16.20;99.90
5344;DHT22;2694;48.950;8.970;2022-09-04T06:17:59;16.70;99.90
5344;DHT22;2694;48.950;8.970;2022-09-04T06:20:42;17.10;99.90
5344;DHT22;2694;48.950;8.970;2022-09-04T06:26:00;17.80;99.90
5344;DHT22;2694;48.950;8.970;2022-09-04T06:31:56;18.40;99.90
5344;DHT22;2694;48.950;8.970;2022-09-04T06:34:50;18.60;99.90
5344;DHT22;2694;48.950;8.970;2022-09-04T06:37:30;19.20;99.90
5344;DHT22;2694;48.950;8.970;2022-09-04T06:40:10;19.50;99.90
5344;DHT22;2694;48.950;8.970;2022-09-04T06:42:52;19.70;99.90
5344;DHT22;2694;48.950;8.970;2022-09-04T06:45:32;20.20;99.90
5344;DHT22;2694;48.950;8.970;2022-09-04T06:48:11;20.30;99.90
5344;DHT22;2694;48.950;8.970;2022-09-04T06:50:48;20.70;99.90
5344;DHT22;2694;48.950;8.970;2022-09-04T06:56:02;20.90;99.90
5344;DHT22;2694;48.950;8.970;2022-09-04T06:58:59;21.20;99.90
5344;DHT22;2694;48.950;8.970;2022-09-04T07:01:36;21.10;99.90
5344;DHT22;2694;48.950;8.970;2022-09-04T07:09:17;21.70;99.90
5344;DHT22;2694;48.950;8.970;2022-09-04T07:15:17;21.60;99.90
5344;DHT22;2694;48.950;8.970;2022-09-04T07:17:56;22.10;99.90
5344;DHT22;2694;48.950;8.970;2022-09-04T07:23:04;22.60;99.90
5344;DHT22;2694;48.950;8.970;2022-09-04T07:25:44;22.60;99.90
5344;DHT22;2694;48.950;8.970;2022-09-04T07:28:28;22.50;99.90
5344;DHT22;2694;48.950;8.970;2022-09-04T07:31:02;22.90;99.90
5344;DHT22;2694;48.950;8.970;2022-09-04T07:33:36;22.80;99.90
5344;DHT22;2694;48.950;8.970;2022-09-04T07:36:09;23.30;99.90
5344;DHT22;2694;48.950;8.970;2022-09-04T07:38:45;23.80;99.90
5344;DHT22;2694;48.950;8.970;2022-09-04T07:43:51;24.80;99.90
5344;DHT22;2694;48.950;8.970;2022-09-04T07:46:24;25.20;99.90
5344;DHT22;2694;48.950;8.970;2022-09-04T07:54:20;25.70;99.90
5344;DHT22;2694;48.950;8.970;2022-09-04T08:00:03;25.20;99.90
5344;DHT22;2694;48.950;8.970;2022-09-04T08:02:59;25.50;99.90
5344;DHT22;2694;48.950;8.970;2022-09-04T08:05:31;25.90;99.90
5344;DHT22;2694;48.950;8.970;2022-09-04T08:08:31;25.80;99.90
5344;DHT22;2694;48.950;8.970;2022-09-04T08:14:33;26.80;99.90
5344;DHT22;2694;48.950;8.970;2022-09-04T08:17:32;27.50;99.90
5344;DHT22;2694;48.950;8.970;2022-09-04T08:20:15;27.70;99.90
5344;DHT22;2694;48.950;8.970;2022-09-04T08:25:26;28.20;99.90
5344;DHT22;2694;48.950;8.970;2022-09-04T08:28:06;28.40;99.90
5344;DHT22;2694;48.950;8.970;2022-09-04T08:30:41;28.70;99.60
5344;DHT22;2694;48.950;8.970;2022-09-04T08:33:26;28.80;99.10
5344;DHT22;2694;48.950;8.970;2022-09-04T08:35:59;28.50;99.70
5344;DHT22;2694;48.950;8.970;2022-09-04T08:50:58;27.50;99.90
5344;DHT22;2694;48.950;8.970;2022-09-04T08:56:46;29.00;98.50
5344;DHT22;2694;48.950;8.970;2022-09-04T09:08:43;29.90;96.70
5344;DHT22;2694;48.950;8.970;2022-09-04T09:14:44;30.20;96.00
5344;DHT22;2694;48.950;8.970;2022-09-04T09:17:31;30.50;94.50
5344;DHT22;2694;48.950;8.970;2022-09-04T09:20:18;30.10;94.80
5344;DHT22;2694;48.950;8.970;2022-09-04T09:23:13;29.70;94.60
5344;DHT22;2694;48.950;8.970;2022-09-04T09:25:50;29.10;95.30
5344;DHT22;2694;48.950;8.970;2022-09-04T09:37:47;29.50;95.70
5344;DHT22;2694;48.950;8.970;2022-09-04T09:40:42;29.80;95.80
5344;DHT22;2694;48.950;8.970;2022-09-04T09:43:34;30.00;94.10
5344;DHT22;2694;48.950;8.970;2022-09-04T09:46:35;30.10;95.10
5344;DHT22;2694;48.950;8.970;2022-09-04T09:55:20;30.60;94.30
5344;DHT22;2694;48.950;8.970;2022-09-04T09:58:20;31.10;93.20
5344;DHT22;2694;48.950;8.970;2022-09-04T10:01:04;30.30;92.10
5344;DHT22;2694;48.950;8.970;2022-09-04T10:07:15;29.70;92.90
5344;DHT22;2694;48.950;8.970;2022-09-04T10:13:09;29.70;93.60
5344;DHT22;2694;48.950;8.970;2022-09-04T10:16:01;30.00;93.10
5344;DHT22;2694;48.950;8.970;2022-09-04T10:22:24;29.00;92.40
5344;DHT22;2694;48.950;8.970;2022-09-04T10:25:28;29.90;93.90
5344;DHT22;2694;48.950;8.970;2022-09-04T10:28:43;30.80;92.80
5344;DHT22;2694;48.950;8.970;2022-09-04T10:31:36;31.10;91.60
5344;DHT22;2694;48.950;8.970;2022-09-04T10:34:14;31.70;90.10
5344;DHT22;2694;48.950;8.970;2022-09-04T10:39:28;31.40;87.90
5344;DHT22;2694;48.950;8.970;2022-09-04T10:42:33;31.50;89.10
5344;DHT22;2694;48.950;8.970;2022-09-04T10:45:23;30.80;88.40
5344;DHT22;2694;48.950;8.970;2022-09-04T10:48:22;30.20;90.10
5344;DHT22;2694;48.950;8.970;2022-09-04T10:54:09;29.20;91.20
5344;DHT22;2694;48.950;8.970;2022-09-04T10:59:32;29.50;90.40
5344;DHT22;2694;48.950;8.970;2022-09-04T11:11:29;29.40;88.40
5344;DHT22;2694;48.950;8.970;2022-09-04T11:17:31;27.80;91.00
5344;DHT22;2694;48.950;8.970;2022-09-04T11:26:27;27.50;94.30
5344;DHT22;2694;48.950;8.970;2022-09-04T11:29:17;28.00;93.40
5344;DHT22;2694;48.950;8.970;2022-09-04T11:32:06;28.10;92.70
5344;DHT22;2694;48.950;8.970;2022-09-04T11:35:01;27.70;92.90
5344;DHT22;2694;48.950;8.970;2022-09-04T11:41:06;27.60;92.80
5344;DHT22;2694;48.950;8.970;2022-09-04T11:44:07;28.10;93.80
5344;DHT22;2694;48.950;8.970;2022-09-04T11:47:00;28.60;92.60
5344;DHT22;2694;48.950;8.970;2022-09-04T11:52:24;29.10;91.90
5344;DHT22;2694;48.950;8.970;2022-09-04T11:55:19;29.40;91.90
5344;DHT22;2694;48.950;8.970;2022-09-04T11:58:09;29.90;91.10
5344;DHT22;2694;48.950;8.970;2022-09-04T12:00:46;30.00;89.30
5344;DHT22;2694;48.950;8.970;2022-09-04T12:06:36;30.30;88.80
5344;DHT22;2694;48.950;8.970;2022-09-04T12:12:07;29.70;84.50
5344;DHT22;2694;48.950;8.970;2022-09-04T12:14:59;30.00;87.50
5344;DHT22;2694;48.950;8.970;2022-09-04T12:20:53;30.00;85.10
5344;DHT22;2694;48.950;8.970;2022-09-04T12:29:41;30.40;80.50
5344;DHT22;2694;48.950;8.970;2022-09-04T12:32:37;30.40;81.20
5344;DHT22;2694;48.950;8.970;2022-09-04T12:38:16;30.40;83.90
5344;DHT22;2694;48.950;8.970;2022-09-04T12:43:29;30.60;83.00
5344;DHT22;2694;48.950;8.970;2022-09-04T12:46:10;30.90;78.70
5344;DHT22;2694;48.950;8.970;2022-09-04T12:48:50;31.10;78.60
5344;DHT22;2694;48.950;8.970;2022-09-04T12:51:22;31.10;77.60
5344;DHT22;2694;48.950;8.970;2022-09-04T12:53:59;31.30;75.20
5344;DHT22;2694;48.950;8.970;2022-09-04T12:56:35;30.80;80.60
5344;DHT22;2694;48.950;8.970;2022-09-04T12:59:23;30.90;82.20
5344;DHT22;2694;48.950;8.970;2022-09-04T13:02:01;30.30;83.10
5344;DHT22;2694;48.950;8.970;2022-09-04T13:07:10;29.80;85.60
5344;DHT22;2694;48.950;8.970;2022-09-04T13:15:07;28.10;90.70
5344;DHT22;2694;48.950;8.970;2022-09-04T13:17:45;28.50;90.80
5344;DHT22;2694;48.950;8.970;2022-09-04T13:20:24;28.70;88.00
5344;DHT22;2694;48.950;8.970;2022-09-04T13:25:38;29.40;84.50
5344;DHT22;2694;48.950;8.970;2022-09-04T13:28:17;29.30;85.70
5344;DHT22;2694;48.950;8.970;2022-09-04T13:30:53;29.60;85.10
5344;DHT22;2694;48.950;8.970;2022-09-04T13:33:40;29.30;81.50
5344;DHT22;2694;48.950;8.970;2022-09-04T13:36:21;28.80;83.20
5344;DHT22;2694;48.950;8.970;2022-09-04T13:39:14;28.20;80.80
5344;DHT22;2694;48.950;8.970;2022-09-04T13:42:11;27.80;85.50
5344;DHT22;2694;48.950;8.970;2022-09-04T13:44:55;28.30;87.00
5344;DHT22;2694;48.950;8.970;2022-09-04T13:49:57;28.90;85.80
5344;DHT22;2694;48.950;8.970;2022-09-04T13:52:35;28.90;83.70
5344;DHT22;2694;48.950;8.970;2022-09-04T13:55:06;29.00;81.50
5344;DHT22;2694;48.950;8.970;2022-09-04T13:57:39;29.10;82.70
5344;DHT22;2694;48.950;8.970;2022-09-04T14:02:36;29.90;82.30
5344;DHT22;2694;48.950;8.970;2022-09-04T14:05:09;30.10;82.50
5344;DHT22;2694;48.950;8.970;2022-09-04T14:10:09;29.60;79.90
5344;DHT22;2694;48.950;8.970;2022-09-04T14:12:59;29.20;80.90
5344;DHT22;2694;48.950;8.970;2022-09-04T14:15:37;29.30;80.50
5344;DHT22;2694;48.950;8.970;2022-09-04T14:18:17;29.40;81.20
5344;DHT22;2694;48.950;8.970;2022-09-04T14:23:31;29.40;81.90
5344;DHT22;2694;48.950;8.970;2022-09-04T14:26:04;29.50;82.50
5344;DHT22;2694;48.950;8.970;2022-09-04T14:28:42;29.30;83.20
5344;DHT22;2694;48.950;8.970;2022-09-04T14:31:16;29.20;84.30
5344;DHT22;2694;48.950;8.970;2022-09-04T14:33:52;29.30;84.60
5344;DHT22;2694;48.950;8.970;2022-09-04T14:36:33;29.50;85.30
5344;DHT22;2694;48.950;8.970;2022-09-04T14:42:13;29.80;82.90
5344;DHT22;2694;48.950;8.970;2022-09-04T14:44:54;29.60;83.30
5344;DHT22;2694;48.950;8.970;2022-09-04T14:47:29;29.20;81.50
5344;DHT22;2694;48.950;8.970;2022-09-04T14:49:59;29.30;83.20
5344;DHT22;2694;48.950;8.970;2022-09-04T14:52:30;29.40;85.80
5344;DHT22;2694;48.950;8.970;2022-09-04T14:54:59;29.20;83.50
5344;DHT22;2694;48.950;8.970;2022-09-04T14:57:31;29.40;84.70
5344;DHT22;2694;48.950;8.970;2022-09-04T15:05:15;29.20;81.80
5344;DHT22;2694;48.950;8.970;2022-09-04T15:07:51;29.20;81.60
5344;DHT22;2694;48.950;8.970;2022-09-04T15:10:23;29.20;82.70
5344;DHT22;2694;48.950;8.970;2022-09-04T15:13:05;29.50;81.00
5344;DHT22;2694;48.950;8.970;2022-09-04T15:15:39;29.50;81.20
5344;DHT22;2694;48.950;8.970;2022-09-04T15:18:10;29.70;81.70
5344;DHT22;2694;48.950;8.970;2022-09-04T15:20:47;30.10;80.20
5344;DHT22;2694;48.950;8.970;2022-09-04T15:31:06;30.50;79.60
5344;DHT22;2694;48.950;8.970;2022-09-04T15:33:35;30.50;80.30
5344;DHT22;2694;48.950;8.970;2022-09-04T15:36:08;30.30;78.40
5344;DHT22;2694;48.950;8.970;2022-09-04T15:38:37;29.70;78.30
5344;DHT22;2694;48.950;8.970;2022-09-04T15:41:15;29.70;77.70
5344;DHT22;2694;48.950;8.970;2022-09-04T15:43:47;29.20;80.40
5344;DHT22;2694;48.950;8.970;2022-09-04T15:46:22;28.90;80.50
5344;DHT22;2694;48.950;8.970;2022-09-04T15:48:56;28.90;83.20
5344;DHT22;2694;48.950;8.970;2022-09-04T15:51:31;28.90;82.00
5344;DHT22;2694;48.950;8.970;2022-09-04T15:54:24;28.80;80.10
5344;DHT22;2694;48.950;8.970;2022-09-04T15:56:57;28.60;81.60
5344;DHT22;2694;48.950;8.970;2022-09-04T15:59:34;28.60;80.10
5344;DHT22;2694;48.950;8.970;2022-09-04T16:02:06;28.30;82.30
5344;DHT22;2694;48.950;8.970;2022-09-04T16:04:40;28.10;83.90
5344;DHT22;2694;48.950;8.970;2022-09-04T16:07:24;28.00;81.90
5344;DHT22;2694;48.950;8.970;2022-09-04T16:10:12;28.00;83.20
5344;DHT22;2694;48.950;8.970;2022-09-04T16:12:48;27.90;83.90
5344;DHT22;2694;48.950;8.970;2022-09-04T16:15:19;27.80;85.00
5344;DHT22;2694;48.950;8.970;2022-09-04T16:17:51;27.60;86.50
5344;DHT22;2694;48.950;8.970;2022-09-04T16:20:21;27.30;86.40
5344;DHT22;2694;48.950;8.970;2022-09-04T16:27:57;26.60;84.60
5344;DHT22;2694;48.950;8.970;2022-09-04T16:30:33;26.50;84.60
5344;DHT22;2694;48.950;8.970;2022-09-04T16:33:01;26.30;83.60
5344;DHT22;2694;48.950;8.970;2022-09-04T16:35:33;26.30;87.00
5344;DHT22;2694;48.950;8.970;2022-09-04T16:38:06;26.10;89.20
5344;DHT22;2694;48.950;8.970;2022-09-04T16:40:40;26.10;89.00
5344;DHT22;2694;48.950;8.970;2022-09-04T16:43:19;26.00;90.00
5344;DHT22;2694;48.950;8.970;2022-09-04T16:45:53;26.00;87.10
5344;DHT22;2694;48.950;8.970;2022-09-04T16:48:26;26.00;87.90
5344;DHT22;2694;48.950;8.970;2022-09-04T16:51:00;25.90;89.60
5344;DHT22;2694;48.950;8.970;2022-09-04T16:53:36;25.80;89.70
5344;DHT22;2694;48.950;8.970;2022-09-04T16:56:13;25.80;90.20
5344;DHT22;2694;48.950;8.970;2022-09-04T16:58:49;25.70;87.50
5344;DHT22;2694;48.950;8.970;2022-09-04T17:01:24;25.60;90.30
5344;DHT22;2694;48.950;8.970;2022-09-04T17:06:54;25.60;91.40
5344;DHT22;2694;48.950;8.970;2022-09-04T17:09:33;25.50;89.80
5344;DHT22;2694;48.950;8.970;2022-09-04T17:12:19;25.60;90.70
5344;DHT22;2694;48.950;8.970;2022-09-04T17:14:53;25.50;89.50
5344;DHT22;2694;48.950;8.970;2022-09-04T17:20:02;25.40;89.70
5344;DHT22;2694;48.950;8.970;2022-09-04T17:22:37;25.40;91.60
5344;DHT22;2694;48.950;8.970;2022-09-04T17:25:16;25.30;91.60
5344;DHT22;2694;48.950;8.970;2022-09-04T17:27:53;25.20;92.40
5344;DHT22;2694;48.950;8.970;2022-09-04T17:30:29;25.10;92.10
5344;DHT22;2694;48.950;8.970;2022-09-04T17:33:00;25.00;93.30
5344;DHT22;2694;48.950;8.970;2022-09-04T17:35:34;24.90;93.90
5344;DHT22;2694;48.950;8.970;2022-09-04T17:38:08;24.70;94.10
5344;DHT22;2694;48.950;8.970;2022-09-04T17:40:43;24.70;94.60
5344;DHT22;2694;48.950;8.970;2022-09-04T17:43:22;24.70;95.80
5344;DHT22;2694;48.950;8.970;2022-09-04T17:46:00;24.50;96.30
5344;DHT22;2694;48.950;8.970;2022-09-04T17:48:32;24.40;95.60
5344;DHT22;2694;48.950;8.970;2022-09-04T17:51:05;24.40;96.80
5344;DHT22;2694;48.950;8.970;2022-09-04T17:53:36;24.30;96.80
5344;DHT22;2694;48.950;8.970;2022-09-04T17:56:09;24.20;97.40
5344;DHT22;2694;48.950;8.970;2022-09-04T17:58:45;24.20;97.40
5344;DHT22;2694;48.950;8.970;2022-09-04T18:03:48;24.00;98.40
5344;DHT22;2694;48.950;8.970;2022-09-04T18:06:22;23.80;98.90
5344;DHT22;2694;48.950;8.970;2022-09-04T18:16:50;23.50;99.90
5344;DHT22;2694;48.950;8.970;2022-09-04T18:21:53;23.10;99.90
5344;DHT22;2694;48.950;8.970;2022-09-04T18:24:24;23.10;99.90
5344;DHT22;2694;48.950;8.970;2022-09-04T18:26:56;22.80;99.90
5344;DHT22;2694;48.950;8.970;2022-09-04T18:29:40;22.60;99.90
5344;DHT22;2694;48.950;8.970;2022-09-04T18:32:16;22.50;99.90
5344;DHT22;2694;48.950;8.970;2022-09-04T18:34:48;22.50;99.90
5344;DHT22;2694;48.950;8.970;2022-09-04T18:39:48;22.60;99.90
5344;DHT22;2694;48.950;8.970;2022-09-04T18:44:50;22.60;99.90
5344;DHT22;2694;48.950;8.970;2022-09-04T18:47:21;22.90;99.90
5344;DHT22;2694;48.950;8.970;2022-09-04T18:57:24;23.40;99.90
5344;DHT22;2694;48.950;8.970;2022-09-04T18:59:58;23.40;99.90
5344;DHT22;2694;48.950;8.970;2022-09-04T19:02:28;23.10;99.90
5344;DHT22;2694;48.950;8.970;2022-09-04T19:04:57;23.10;99.90
5344;DHT22;2694;48.950;8.970;2022-09-04T19:07:27;23.10;99.90
5344;DHT22;2694;48.950;8.970;2022-09-04T19:10:08;23.20;99.90
5344;DHT22;2694;48.950;8.970;2022-09-04T19:12:46;23.20;99.90
5344;DHT22;2694;48.950;8.970;2022-09-04T19:15:49;22.90;99.90
5344;DHT22;2694;48.950;8.970;2022-09-04T19:18:24;22.80;99.90
5344;DHT22;2694;48.950;8.970;2022-09-04T19:23:27;22.20;99.90
5344;DHT22;2694;48.950;8.970;2022-09-04T19:25:58;22.10;99.90
5344;DHT22;2694;48.950;8.970;2022-09-04T19:28:38;21.80;99.90
5344;DHT22;2694;48.950;8.970;2022-09-04T19:31:10;21.70;99.90
5344;DHT22;2694;48.950;8.970;2022-09-04T19:33:40;21.50;99.90
5344;DHT22;2694;48.950;8.970;2022-09-04T19:38:44;21.00;99.90
5344;DHT22;2694;48.950;8.970;2022-09-04T19:41:16;20.90;99.90
5344;DHT22;2694;48.950;8.970;2022-09-04T19:43:49;20.80;99.90
5344;DHT22;2694;48.950;8.970;2022-09-04T19:46:26;20.70;99.90
5344;DHT22;2694;48.950;8.970;2022-09-04T19:49:05;20.70;99.90
5344;DHT22;2694;48.950;8.970;2022-09-04T19:54:07;20.70;99.90
5344;DHT22;2694;48.950;8.970;2022-09-04T19:56:42;20.80;99.90
5344;DHT22;2694;48.950;8.970;2022-09-04T19:59:14;20.60;99.90
5344;DHT22;2694;48.950;8.970;2022-09-04T20:01:48;20.50;99.90
5344;DHT22;2694;48.950;8.970;2022-09-04T20:04:25;20.40;99.90
5344;DHT22;2694;48.950;8.970;2022-09-04T20:06:55;20.40;99.90
5344;DHT22;2694;48.950;8.970;2022-09-04T20:09:30;20.40;99.90
5344;DHT22;2694;48.950;8.970;2022-09-04T20:12:03;20.40;99.90
5344;DHT22;2694;48.950;8.970;2022-09-04T20:14:41;20.40;99.90
5344;DHT22;2694;48.950;8.970;2022-09-04T20:17:27;20.40;99.90
5344;DHT22;2694;48.950;8.970;2022-09-04T20:20:00;20.30;99.90
5344;DHT22;2694;48.950;8.970;2022-09-04T20:22:33;20.10;99.90
5344;DHT22;2694;48.950;8.970;2022-09-04T20:31:05;20.20;99.90
5344;DHT22;2694;48.950;8.970;2022-09-04T20:33:38;20.20;99.90
5344;DHT22;2694;48.950;8.970;2022-09-04T20:36:08;20.20;99.90
5344;DHT22;2694;48.950;8.970;2022-09-04T20:38:42;20.20;99.90
5344;DHT22;2694;48.950;8.970;2022-09-04T20:41:17;20.00;99.90
5344;DHT22;2694;48.950;8.970;2022-09-04T20:43:53;19.80;99.90
5344;DHT22;2694;48.950;8.970;2022-09-04T20:48:57;19.70;99.90
5344;DHT22;2694;48.950;8.970;2022-09-04T20:51:27;19.60;99.90
5344;DHT22;2694;48.950;8.970;2022-09-04T20:54:06;19.60;99.90
5344;DHT22;2694;48.950;8.970;2022-09-04T20:56:46;19.40;99.90
5344;DHT22;2694;48.950;8.970;2022-09-04T21:01:52;19.20;99.90
5344;DHT22;2694;48.950;8.970;2022-09-04T21:04:34;19.10;99.90
5344;DHT22;2694;48.950;8.970;2022-09-04T21:07:05;19.00;99.90
5344;DHT22;2694;48.950;8.970;2022-09-04T21:09:46;19.10;99.90
5344;DHT22;2694;48.950;8.970;2022-09-04T21:12:24;19.20;99.90
5344;DHT22;2694;48.950;8.970;2022-09-04T21:14:57;19.20;99.90
5344;DHT22;2694;48.950;8.970;2022-09-04T21:17:50;19.20;99.90
5344;DHT22;2694;48.950;8.970;2022-09-04T21:21:04;19.20;99.90
5344;DHT22;2694;48.950;8.970;2022-09-04T21:26:59;19.20;99.90
5344;DHT22;2694;48.950;8.970;2022-09-04T21:29:39;19.10;99.90
5344;DHT22;2694;48.950;8.970;2022-09-04T21:34:56;19.10;99.90
5344;DHT22;2694;48.950;8.970;2022-09-04T21:37:37;18.90;99.90
5344;DHT22;2694;48.950;8.970;2022-09-04T21:46:24;18.70;99.90
5344;DHT22;2694;48.950;8.970;2022-09-04T21:49:07;18.50;99.90
5344;DHT22;2694;48.950;8.970;2022-09-04T21:51:52;18.50;99.90
5344;DHT22;2694;48.950;8.970;2022-09-04T21:54:34;18.30;99.90
5344;DHT22;2694;48.950;8.970;2022-09-04T21:57:23;18.20;99.90
5344;DHT22;2694;48.950;8.970;2022-09-04T22:02:44;18.40;99.90
5344;DHT22;2694;48.950;8.970;2022-09-04T22:05:22;18.30;99.90
5344;DHT22;2694;48.950;8.970;2022-09-04T22:07:59;18.20;99.90